Time;durP1;ratioP1;P1;durP2;ratioP2;P2;SDS_P1;SDS_P2;PMS_P1;PMS_P2;Temp;Humidity;BMP_temperature;BMP_pressure;BME280_temperature;BME280_humidity;BME280_pressure;Samples;Min_cycle;Max_cycle;Signal;HPM_P1;HPM_P2
2022/10/14 00:01:38;;;;;;;41.88;22.10;;;;;;;;;;4991528;28;20035;-77
2022/10/14 00:04:04;;;;;;;45.20;22.15;;;;;;;;;;4991556;28;20436;-78
2022/10/14 00:06:31;;;;;;;41.45;22.73;;;;;;;;;;4991369;28;20034;-77
2022/10/14 00:09:04;;;;;;;38.85;22.38;;;;;;;;;;4991420;28;20038;-77
2022/10/14 00:11:32;;;;;;;41.80;21.17;;;;;;;;;;4992074;28;20026;-78
2022/10/14 00:14:00;;;;;;;39.65;22.75;;;;;;;;;;4974304;28;20509;-77
2022/10/14 00:16:29;;;;;;;38.97;21.73;;;;;;;;;;4991700;28;20026;-77
2022/10/14 00:18:57;;;;;;;42.65;22.30;;;;;;;;;;4973750;28;20038;-78
2022/10/14 00:21:23;;;;;;;40.30;22.75;;;;;;;;;;4990975;28;20054;-77
2022/10/14 00:23:49;;;;;;;38.92;22.55;;;;;;;;;;4973653;28;20089;-77
2022/10/14 00:26:23;;;;;;;40.90;21.83;;;;;;;;;;4973514;28;20029;-77
2022/10/14 00:28:49;;;;;;;38.28;21.15;;;;;;;;;;4972901;28;20030;-78
2022/10/14 00:31:15;;;;;;;46.25;22.42;;;;;;;;;;4973053;28;20033;-77
2022/10/14 00:33:41;;;;;;;34.17;20.75;;;;;;;;;;4972993;28;20045;-78
2022/10/14 00:36:07;;;;;;;39.53;21.92;;;;;;;;;;4973025;28;20034;-76
2022/10/14 00:38:34;;;;;;;42.92;21.95;;;;;;;;;;4973119;28;20034;-77
2022/10/14 00:41:00;;;;;;;38.83;21.92;;;;;;;;;;4990882;28;20444;-78
2022/10/14 00:43:27;;;;;;;45.33;22.85;;;;;;;;;;4990795;28;20038;-77
2022/10/14 00:45:53;;;;;;;42.80;22.98;;;;;;;;;;4990798;28;20038;-77
2022/10/14 00:48:23;;;;;;;44.83;22.55;;;;;;;;;;4991444;28;20027;-77
2022/10/14 00:50:53;;;;;;;47.25;23.95;;;;;;;;;;4973435;28;20552;-78
2022/10/14 00:53:19;;;;;;;40.92;23.10;;;;;;;;;;4974019;28;20034;-77
2022/10/14 00:55:45;;;;;;;44.75;23.55;;;;;;;;;;4957802;28;20487;-77
2022/10/14 00:58:11;;;;;;;39.83;22.10;;;;;;;;;;4974103;28;20104;-77
2022/10/14 01:00:37;;;;;;;44.97;22.98;;;;;;;;;;4990927;28;20458;-77
2022/10/14 01:03:17;;;;;;;41.40;21.83;;;;;;;;;;4973693;28;20447;-77
2022/10/14 01:05:52;;;;;;;46.38;22.42;;;;;;;;;;4973727;28;20046;-77
2022/10/14 01:08:46;;;;;;;45.72;22.95;;;;;;;;;;4973237;28;20031;-76
2022/10/14 01:11:30;;;;;;;45.50;21.42;;;;;;;;;;4973564;28;20030;-78
2022/10/14 01:14:11;;;;;;;34.58;19.58;;;;;;;;;;4991631;28;20032;-78
2022/10/14 01:17:03;;;;;;;36.55;20.63;;;;;;;;;;4978651;28;20061;-79
2022/10/14 01:19:51;;;;;;;40.90;20.30;;;;;;;;;;5011869;28;20103;-78
2022/10/14 01:22:31;;;;;;;32.60;19.35;;;;;;;;;;4979850;28;20065;-77
2022/10/14 01:25:08;;;;;;;37.70;19.40;;;;;;;;;;4986919;28;20033;-77
2022/10/14 01:27:43;;;;;;;39.55;19.98;;;;;;;;;;4974071;28;20606;-77
2022/10/14 01:30:08;;;;;;;38.05;20.08;;;;;;;;;;4994079;28;20034;-78
2022/10/14 01:32:52;;;;;;;40.85;21.27;;;;;;;;;;4992932;28;20501;-78
2022/10/14 01:35:39;;;;;;;37.20;20.05;;;;;;;;;;4973858;28;20065;-77
2022/10/14 01:38:34;;;;;;;37.35;18.98;;;;;;;;;;4991379;28;20037;-77
2022/10/14 01:41:08;;;;;;;43.13;19.58;;;;;;;;;;4971475;28;20046;-78
2022/10/14 01:43:36;;;;;;;43.78;20.60;;;;;;;;;;4973190;28;20030;-77
2022/10/14 01:46:05;;;;;;;33.22;17.58;;;;;;;;;;4989978;28;20022;-77
2022/10/14 01:48:35;;;;;;;35.28;19.40;;;;;;;;;;4974746;28;20026;-77
2022/10/14 01:51:10;;;;;;;38.88;19.13;;;;;;;;;;4994569;28;20420;-77
2022/10/14 01:53:40;;;;;;;39.80;21.27;;;;;;;;;;4976702;28;20132;-78
2022/10/14 01:56:08;;;;;;;35.55;20.40;;;;;;;;;;4994249;28;20105;-78
2022/10/14 01:58:35;;;;;;;42.90;19.52;;;;;;;;;;4993863;28;20030;-77
2022/10/14 02:01:05;;;;;;;35.80;18.77;;;;;;;;;;4975939;28;20030;-77
2022/10/14 02:03:45;;;;;;;36.05;19.23;;;;;;;;;;4976109;28;20129;-77
2022/10/14 02:06:24;;;;;;;40.95;20.17;;;;;;;;;;4976116;28;20040;-77
2022/10/14 02:09:17;;;;;;;33.40;19.50;;;;;;;;;;4975480;28;20034;-77
2022/10/14 02:12:01;;;;;;;39.53;20.13;;;;;;;;;;4993074;28;20075;-77
2022/10/14 02:15:00;;;;;;;34.63;18.20;;;;;;;;;;4976916;28;20096;-77
2022/10/14 02:17:31;;;;;;;38.03;19.95;;;;;;;;;;4976991;28;20034;-78
2022/10/14 02:20:15;;;;;;;32.22;18.77;;;;;;;;;;4976500;28;20026;-76
2022/10/14 02:22:49;;;;;;;37.38;20.23;;;;;;;;;;4976056;28;20177;-79
2022/10/14 02:25:23;;;;;;;37.45;18.92;;;;;;;;;;4975453;28;20052;-78
2022/10/14 02:27:51;;;;;;;32.35;19.10;;;;;;;;;;4993266;28;20412;-77
2022/10/14 02:30:18;;;;;;;36.35;18.13;;;;;;;;;;4975425;28;20022;-77
2022/10/14 02:32:45;;;;;;;36.97;18.70;;;;;;;;;;4975921;28;20088;-78
2022/10/14 02:35:14;;;;;;;36.60;19.58;;;;;;;;;;4976097;28;20049;-79
2022/10/14 02:37:40;;;;;;;32.17;18.52;;;;;;;;;;4993260;28;20117;-78
2022/10/14 02:40:32;;;;;;;36.05;18.77;;;;;;;;;;4993414;28;20088;-77
2022/10/14 02:42:58;;;;;;;38.45;18.30;;;;;;;;;;4984300;28;20093;-78
2022/10/14 02:45:26;;;;;;;33.80;18.08;;;;;;;;;;4974989;28;20490;-77
2022/10/14 02:47:52;;;;;;;36.97;18.08;;;;;;;;;;4975191;28;20327;-77
2022/10/14 02:50:18;;;;;;;35.70;18.60;;;;;;;;;;4975182;28;20482;-78
2022/10/14 02:52:44;;;;;;;35.72;17.95;;;;;;;;;;4992711;28;20046;-77
2022/10/14 02:55:10;;;;;;;34.40;18.35;;;;;;;;;;4975814;28;20531;-77
2022/10/14 02:57:35;;;;;;;44.83;18.05;;;;;;;;;;4975456;28;20030;-78
2022/10/14 03:00:02;;;;;;;30.92;16.92;;;;;;;;;;4974131;28;20026;-76
2022/10/14 03:02:28;;;;;;;32.55;19.00;;;;;;;;;;4975297;28;20467;-77
2022/10/14 03:04:53;;;;;;;31.65;17.90;;;;;;;;;;4992664;28;20053;-77
2022/10/14 03:07:19;;;;;;;33.17;17.40;;;;;;;;;;4993098;28;20137;-78
2022/10/14 03:09:44;;;;;;;33.00;18.33;;;;;;;;;;4975480;28;20034;-78
2022/10/14 03:12:10;;;;;;;42.33;17.77;;;;;;;;;;4975230;28;20105;-77
2022/10/14 03:14:36;;;;;;;31.63;15.98;;;;;;;;;;4975296;28;20664;-78
2022/10/14 03:17:01;;;;;;;29.33;16.63;;;;;;;;;;4974729;28;20037;-77
2022/10/14 03:19:27;;;;;;;37.35;19.30;;;;;;;;;;4974807;28;20034;-77
2022/10/14 03:21:52;;;;;;;33.13;17.05;;;;;;;;;;4992374;28;20451;-78
2022/10/14 03:24:18;;;;;;;31.15;16.70;;;;;;;;;;4975080;28;20030;-77
2022/10/14 03:26:43;;;;;;;34.63;16.83;;;;;;;;;;4974575;28;20080;-77
2022/10/14 03:29:09;;;;;;;31.58;17.20;;;;;;;;;;4992059;28;20030;-78
2022/10/14 03:31:34;;;;;;;37.90;17.30;;;;;;;;;;4991595;28;20037;-79
2022/10/14 03:34:01;;;;;;;36.55;18.33;;;;;;;;;;4974329;28;20394;-77
2022/10/14 03:36:26;;;;;;;34.47;18.15;;;;;;;;;;4974273;28;20030;-77
2022/10/14 03:38:52;;;;;;;34.75;18.25;;;;;;;;;;4974333;28;20033;-77
2022/10/14 03:41:17;;;;;;;34.53;17.67;;;;;;;;;;4992118;28;20121;-79
2022/10/14 03:43:43;;;;;;;33.38;17.40;;;;;;;;;;4991880;28;20027;-77
2022/10/14 03:46:08;;;;;;;29.67;17.67;;;;;;;;;;4992058;28;20077;-78
2022/10/14 03:48:34;;;;;;;31.80;17.42;;;;;;;;;;4974287;28;20026;-77
2022/10/14 03:50:59;;;;;;;33.95;18.77;;;;;;;;;;4974154;28;20474;-76
2022/10/14 03:53:25;;;;;;;33.42;18.00;;;;;;;;;;4974389;28;20463;-78
2022/10/14 03:55:50;;;;;;;32.58;17.58;;;;;;;;;;4992278;28;20036;-78
2022/10/14 03:58:16;;;;;;;37.95;18.85;;;;;;;;;;4991804;28;20033;-78
2022/10/14 04:00:41;;;;;;;31.92;17.48;;;;;;;;;;4973955;28;20038;-79
2022/10/14 04:03:07;;;;;;;31.80;17.98;;;;;;;;;;4973834;28;20026;-78
2022/10/14 04:05:32;;;;;;;33.17;16.58;;;;;;;;;;4991727;28;20501;-78
2022/10/14 04:07:59;;;;;;;45.83;18.23;;;;;;;;;;4991357;28;20034;-77
2022/10/14 04:10:25;;;;;;;36.92;17.80;;;;;;;;;;4991136;28;20038;-77
2022/10/14 04:12:52;;;;;;;32.40;17.15;;;;;;;;;;4973794;28;20026;-77
2022/10/14 04:15:18;;;;;;;33.92;17.85;;;;;;;;;;4974094;28;20031;-76
2022/10/14 04:17:44;;;;;;;33.88;17.52;;;;;;;;;;4991396;28;20101;-79
2022/10/14 04:20:10;;;;;;;37.45;17.35;;;;;;;;;;4991209;28;20742;-78
2022/10/14 04:22:35;;;;;;;36.35;17.92;;;;;;;;;;4973253;28;20050;-78
2022/10/14 04:25:01;;;;;;;32.55;16.77;;;;;;;;;;4973428;28;20022;-77
2022/10/14 04:27:27;;;;;;;38.72;17.13;;;;;;;;;;4973617;28;20479;-77
2022/10/14 04:29:53;;;;;;;32.67;17.27;;;;;;;;;;4991212;28;20026;-77
2022/10/14 04:32:19;;;;;;;32.78;17.83;;;;;;;;;;4973515;28;20027;-77
2022/10/14 04:34:44;;;;;;;32.78;17.38;;;;;;;;;;4973653;28;20113;-76
2022/10/14 04:37:10;;;;;;;32.83;17.35;;;;;;;;;;4973663;28;20022;-78
2022/10/14 04:39:35;;;;;;;30.90;16.25;;;;;;;;;;4973419;28;20060;-78
2022/10/14 04:42:01;;;;;;;41.03;18.60;;;;;;;;;;4990714;28;20034;-77
2022/10/14 04:44:26;;;;;;;27.48;16.92;;;;;;;;;;4973195;28;20026;-78
2022/10/14 04:46:52;;;;;;;29.95;18.23;;;;;;;;;;4990674;28;20053;-78
2022/10/14 04:49:17;;;;;;;32.80;16.23;;;;;;;;;;4991155;28;20026;-77
2022/10/14 04:51:43;;;;;;;31.25;17.60;;;;;;;;;;4973349;28;20030;-77
2022/10/14 04:54:10;;;;;;;40.67;17.35;;;;;;;;;;4973235;28;20715;-77
2022/10/14 04:56:36;;;;;;;31.02;16.70;;;;;;;;;;4991015;28;20018;-77
2022/10/14 04:59:02;;;;;;;30.92;16.38;;;;;;;;;;4972748;28;20034;-78
2022/10/14 05:01:28;;;;;;;34.45;16.95;;;;;;;;;;4972985;28;20080;-78
2022/10/14 05:03:54;;;;;;;36.17;17.42;;;;;;;;;;4972915;28;20030;-77
2022/10/14 05:06:20;;;;;;;42.00;17.40;;;;;;;;;;4966533;28;20041;-78
2022/10/14 05:08:45;;;;;;;31.75;15.82;;;;;;;;;;4969464;28;20046;-79
2022/10/14 05:11:11;;;;;;;32.80;17.08;;;;;;;;;;4965158;28;20173;-77
2022/10/14 05:13:37;;;;;;;29.98;16.27;;;;;;;;;;4972494;28;20034;-79
2022/10/14 05:16:03;;;;;;;36.40;16.52;;;;;;;;;;4990164;28;20031;-80
2022/10/14 05:18:29;;;;;;;30.35;17.73;;;;;;;;;;4992856;28;20034;-81
2022/10/14 05:20:57;;;;;;;30.33;17.95;;;;;;;;;;4988820;28;20053;-78
2022/10/14 05:23:25;;;;;;;28.52;17.08;;;;;;;;;;4965847;28;20035;-77
2022/10/14 05:25:50;;;;;;;37.75;18.55;;;;;;;;;;4988208;28;20041;-80
2022/10/14 05:28:16;;;;;;;36.63;19.55;;;;;;;;;;4984360;28;20501;-79
2022/10/14 05:30:42;;;;;;;37.60;20.08;;;;;;;;;;4977785;28;20479;-81
2022/10/14 05:33:08;;;;;;;37.50;20.23;;;;;;;;;;5000591;28;20145;-80
2022/10/14 05:35:33;;;;;;;39.08;20.20;;;;;;;;;;4979677;28;20045;-80
2022/10/14 05:37:59;;;;;;;39.03;20.23;;;;;;;;;;4993910;28;20023;-80
2022/10/14 05:40:25;;;;;;;40.42;21.00;;;;;;;;;;4995032;28;20651;-82
2022/10/14 05:42:50;;;;;;;44.55;22.83;;;;;;;;;;4984299;28;20520;-82
2022/10/14 05:45:16;;;;;;;42.58;18.75;;;;;;;;;;4975419;28;20047;-75
2022/10/14 05:47:45;;;;;;;38.67;19.17;;;;;;;;;;4983723;28;21480;-76
2022/10/14 05:50:12;;;;;;;48.17;18.35;;;;;;;;;;4983039;28;20022;-76
2022/10/14 05:52:39;;;;;;;30.85;17.98;;;;;;;;;;4951026;28;20034;-75
2022/10/14 05:55:06;;;;;;;28.92;16.52;;;;;;;;;;4986696;28;20363;-77
2022/10/14 05:57:32;;;;;;;36.03;17.60;;;;;;;;;;4970219;28;20483;-77
2022/10/14 06:00:03;;;;;;;37.72;17.77;;;;;;;;;;4975216;28;20037;-79
2022/10/14 06:02:30;;;;;;;29.13;15.80;;;;;;;;;;4984411;28;21248;-77
2022/10/14 06:04:55;;;;;;;37.67;18.02;;;;;;;;;;4969157;28;20089;-80
2022/10/14 06:07:21;;;;;;;31.58;15.98;;;;;;;;;;4991964;28;20042;-80
2022/10/14 06:09:46;;;;;;;36.72;16.50;;;;;;;;;;4976084;28;20367;-80
2022/10/14 06:12:12;;;;;;;31.10;17.25;;;;;;;;;;4982562;28;20033;-80
2022/10/14 06:14:38;;;;;;;30.77;17.85;;;;;;;;;;4967498;28;20165;-76
2022/10/14 06:17:04;;;;;;;31.48;15.82;;;;;;;;;;4971188;28;20034;-81
2022/10/14 06:19:31;;;;;;;33.22;15.93;;;;;;;;;;4987440;28;20225;-81
2022/10/14 06:21:58;;;;;;;39.17;16.50;;;;;;;;;;4979362;28;20053;-79
2022/10/14 06:24:23;;;;;;;31.60;16.58;;;;;;;;;;4972928;28;20057;-82
2022/10/14 06:26:50;;;;;;;28.38;15.88;;;;;;;;;;4969708;28;20026;-79
2022/10/14 06:29:16;;;;;;;27.52;15.55;;;;;;;;;;4972704;28;20030;-75
2022/10/14 06:31:42;;;;;;;30.27;15.65;;;;;;;;;;4974410;28;20034;-77
2022/10/14 06:34:08;;;;;;;30.15;16.73;;;;;;;;;;4975594;28;20031;-77
2022/10/14 06:36:35;;;;;;;28.88;16.13;;;;;;;;;;4972778;28;20026;-77
2022/10/14 06:39:03;;;;;;;36.15;16.65;;;;;;;;;;4976922;28;20036;-74
2022/10/14 06:41:29;;;;;;;31.17;15.02;;;;;;;;;;4974717;28;20042;-80
2022/10/14 06:43:55;;;;;;;35.83;15.48;;;;;;;;;;4994199;28;20498;-75
2022/10/14 06:46:24;;;;;;;31.08;16.90;;;;;;;;;;4961361;28;20038;-77
2022/10/14 06:48:50;;;;;;;26.67;14.88;;;;;;;;;;4958638;28;20047;-78
2022/10/14 06:51:17;;;;;;;28.25;14.45;;;;;;;;;;4979885;28;20040;-77
2022/10/14 06:53:43;;;;;;;47.55;23.30;;;;;;;;;;4967318;28;20039;-77
2022/10/14 06:56:10;;;;;;;28.90;14.98;;;;;;;;;;4964042;28;20420;-76
2022/10/14 06:58:36;;;;;;;27.23;15.82;;;;;;;;;;4984136;28;20033;-76
2022/10/14 07:01:06;;;;;;;30.05;16.30;;;;;;;;;;4984586;28;20052;-77
2022/10/14 07:03:37;;;;;;;33.28;16.05;;;;;;;;;;4964295;28;20041;-78
2022/10/14 07:06:05;;;;;;;32.72;16.20;;;;;;;;;;4966900;28;20046;-75
2022/10/14 07:08:31;;;;;;;34.25;16.17;;;;;;;;;;4967516;28;20034;-76
2022/10/14 07:10:57;;;;;;;30.42;15.23;;;;;;;;;;4953748;28;20125;-77
2022/10/14 07:13:22;;;;;;;33.25;16.17;;;;;;;;;;4987449;28;20125;-77
2022/10/14 07:15:51;;;;;;;26.10;14.63;;;;;;;;;;4990533;28;20038;-77
2022/10/14 07:18:17;;;;;;;29.70;15.73;;;;;;;;;;4985302;28;20057;-78
2022/10/14 07:20:44;;;;;;;27.35;14.70;;;;;;;;;;4956771;28;20041;-74
2022/10/14 07:23:15;;;;;;;31.17;16.08;;;;;;;;;;4971353;28;20042;-76
2022/10/14 07:25:42;;;;;;;27.55;15.77;;;;;;;;;;4971492;28;20469;-76
2022/10/14 07:28:11;;;;;;;35.92;14.60;;;;;;;;;;4968040;28;20133;-79
2022/10/14 07:30:39;;;;;;;24.25;14.65;;;;;;;;;;4967164;28;20042;-78
2022/10/14 07:33:05;;;;;;;27.90;15.52;;;;;;;;;;4965474;28;20045;-77
2022/10/14 07:35:31;;;;;;;29.67;15.60;;;;;;;;;;4971115;28;20128;-76
2022/10/14 07:37:58;;;;;;;24.88;15.48;;;;;;;;;;4970553;28;20530;-77
2022/10/14 07:40:26;;;;;;;24.75;13.98;;;;;;;;;;4975418;28;20045;-76
2022/10/14 07:42:52;;;;;;;27.08;13.93;;;;;;;;;;4970377;28;20030;-78
2022/10/14 07:45:20;;;;;;;22.83;13.98;;;;;;;;;;4966491;28;20133;-80
2022/10/14 07:47:50;;;;;;;25.02;13.50;;;;;;;;;;4972564;28;20496;-77
2022/10/14 07:50:19;;;;;;;26.08;13.80;;;;;;;;;;4973434;28;20527;-76
2022/10/14 07:52:46;;;;;;;34.53;15.98;;;;;;;;;;4975079;28;20030;-76
2022/10/14 07:55:12;;;;;;;26.02;14.30;;;;;;;;;;4971379;28;20385;-77
2022/10/14 07:57:38;;;;;;;28.20;15.18;;;;;;;;;;4972431;28;20103;-76
2022/10/14 08:00:07;;;;;;;24.73;14.55;;;;;;;;;;4968555;28;20606;-74
2022/10/14 08:02:34;;;;;;;26.98;15.35;;;;;;;;;;4961602;28;20035;-74
2022/10/14 08:05:00;;;;;;;25.45;14.25;;;;;;;;;;4962311;28;20027;-75
2022/10/14 08:07:28;;;;;;;23.92;15.15;;;;;;;;;;4967966;28;20054;-75
2022/10/14 08:09:54;;;;;;;26.52;14.25;;;;;;;;;;4966636;28;20031;-74
2022/10/14 08:12:20;;;;;;;28.92;14.50;;;;;;;;;;4961728;28;20026;-75
2022/10/14 08:14:45;;;;;;;26.98;14.70;;;;;;;;;;4965350;28;20037;-73
2022/10/14 08:17:12;;;;;;;27.95;14.57;;;;;;;;;;4961252;28;20104;-75
2022/10/14 08:19:39;;;;;;;52.42;25.08;;;;;;;;;;4966194;28;20077;-77
2022/10/14 08:22:04;;;;;;;28.88;14.65;;;;;;;;;;4962535;28;20046;-76
2022/10/14 08:24:30;;;;;;;27.33;14.57;;;;;;;;;;4976723;28;20062;-73
2022/10/14 08:26:59;;;;;;;25.02;13.63;;;;;;;;;;4962137;28;20396;-76
2022/10/14 08:29:26;;;;;;;28.08;15.68;;;;;;;;;;4966506;28;20030;-78
2022/10/14 08:31:54;;;;;;;24.88;14.40;;;;;;;;;;4964989;28;20051;-75
2022/10/14 08:34:20;;;;;;;21.88;13.57;;;;;;;;;;4965171;28;20031;-76
2022/10/14 08:36:47;;;;;;;23.38;14.27;;;;;;;;;;4965405;28;20097;-74
2022/10/14 08:39:17;;;;;;;23.40;13.95;;;;;;;;;;4970680;28;20030;-73
2022/10/14 08:42:17;;;;;;;25.00;13.55;;;;;;;;;;4973628;28;20039;-72
2022/10/14 08:45:07;;;;;;;22.20;13.48;;;;;;;;;;4958527;28;20050;-74
2022/10/14 08:47:44;;;;;;;23.45;13.25;;;;;;;;;;4962561;28;20031;-75
2022/10/14 08:50:43;;;;;;;23.00;13.65;;;;;;;;;;4966684;28;20150;-75
2022/10/14 08:53:33;;;;;;;26.15;13.38;;;;;;;;;;4962150;28;20038;-73
2022/10/14 08:56:01;;;;;;;21.50;12.35;;;;;;;;;;4960164;28;20138;-75
2022/10/14 08:58:37;;;;;;;22.08;12.45;;;;;;;;;;4960210;28;20053;-74
2022/10/14 09:01:30;;;;;;;25.20;14.55;;;;;;;;;;4968541;28;20030;-73
2022/10/14 09:04:02;;;;;;;33.35;14.60;;;;;;;;;;4956641;28;20046;-76
2022/10/14 09:06:37;;;;;;;25.83;13.50;;;;;;;;;;4968565;28;20065;-77
2022/10/14 09:09:13;;;;;;;26.95;13.88;;;;;;;;;;4965940;28;20046;-76
2022/10/14 09:11:44;;;;;;;23.92;13.90;;;;;;;;;;4967631;28;20093;-74
2022/10/14 09:14:16;;;;;;;25.75;14.77;;;;;;;;;;4970362;28;20050;-74
2022/10/14 09:16:44;;;;;;;24.08;13.57;;;;;;;;;;4972732;28;20038;-75
2022/10/14 09:19:30;;;;;;;27.25;14.77;;;;;;;;;;4976364;28;20457;-77
2022/10/14 09:21:58;;;;;;;27.92;15.63;;;;;;;;;;4971143;28;20055;-70
2022/10/14 09:24:31;;;;;;;27.88;15.55;;;;;;;;;;4964679;28;20105;-75
2022/10/14 09:27:15;;;;;;;27.55;15.52;;;;;;;;;;4964183;28;20030;-73
2022/10/14 09:30:01;;;;;;;27.83;13.30;;;;;;;;;;4966591;28;20480;-78
2022/10/14 09:32:39;;;;;;;34.25;15.00;;;;;;;;;;4951666;28;20356;-75
2022/10/14 09:35:39;;;;;;;28.02;14.27;;;;;;;;;;4957016;28;20109;-76
2022/10/14 09:38:06;;;;;;;25.90;14.23;;;;;;;;;;4982176;28;20159;-72
2022/10/14 09:40:35;;;;;;;28.90;14.70;;;;;;;;;;4985156;28;20507;-75
2022/10/14 09:43:10;;;;;;;26.83;14.60;;;;;;;;;;4977327;28;20050;-74
2022/10/14 09:45:59;;;;;;;28.77;15.25;;;;;;;;;;4969213;28;20113;-76
2022/10/14 09:48:36;;;;;;;26.42;14.40;;;;;;;;;;4975331;28;20168;-75
2022/10/14 09:51:07;;;;;;;30.05;14.88;;;;;;;;;;4976613;28;20495;-75
2022/10/14 09:53:41;;;;;;;31.50;14.83;;;;;;;;;;4961478;28;20123;-74
2022/10/14 09:56:08;;;;;;;26.60;14.05;;;;;;;;;;4967567;28;20697;-75
2022/10/14 09:58:52;;;;;;;27.75;14.38;;;;;;;;;;4969059;28;20041;-77
2022/10/14 10:01:31;;;;;;;23.98;14.00;;;;;;;;;;4975410;28;20105;-75
2022/10/14 10:04:24;;;;;;;25.15;13.48;;;;;;;;;;4990076;28;20034;-75
2022/10/14 10:06:53;;;;;;;31.70;14.80;;;;;;;;;;4955458;28;20034;-76
2022/10/14 10:09:19;;;;;;;28.08;15.48;;;;;;;;;;4973632;28;20509;-74
2022/10/14 10:11:45;;;;;;;23.80;14.02;;;;;;;;;;4975800;28;20030;-74
2022/10/14 10:14:21;;;;;;;24.88;13.95;;;;;;;;;;4997071;28;20604;-77
2022/10/14 10:16:51;;;;;;;32.17;14.95;;;;;;;;;;4977097;28;20072;-75
2022/10/14 10:19:30;;;;;;;24.50;14.77;;;;;;;;;;4975526;28;20444;-75
2022/10/14 10:22:18;;;;;;;27.10;14.15;;;;;;;;;;4977767;28;20105;-76
2022/10/14 10:24:59;;;;;;;25.95;14.65;;;;;;;;;;4968034;28;20030;-75
2022/10/14 10:27:34;;;;;;;29.58;14.30;;;;;;;;;;4976704;28;20041;-78
2022/10/14 10:30:23;;;;;;;28.58;13.88;;;;;;;;;;4980969;28;20517;-74
2022/10/14 10:33:12;;;;;;;24.42;13.38;;;;;;;;;;4975416;28;20034;-75
2022/10/14 10:35:52;;;;;;;29.08;13.00;;;;;;;;;;4986085;28;20133;-77
2022/10/14 10:38:23;;;;;;;22.20;12.18;;;;;;;;;;4971152;28;20036;-79
2022/10/14 10:41:22;;;;;;;23.95;14.27;;;;;;;;;;4974395;28;20426;-77
2022/10/14 10:44:09;;;;;;;21.45;12.50;;;;;;;;;;4987445;28;20030;-77
2022/10/14 10:46:44;;;;;;;22.63;12.60;;;;;;;;;;4993096;28;20485;-79
2022/10/14 10:49:21;;;;;;;26.70;11.85;;;;;;;;;;4972139;28;20049;-78
2022/10/14 10:52:16;;;;;;;19.10;12.02;;;;;;;;;;4974963;28;20122;-77
2022/10/14 10:55:01;;;;;;;24.58;12.85;;;;;;;;;;4974447;28;20034;-80
2022/10/14 10:57:56;;;;;;;21.80;11.95;;;;;;;;;;4972478;28;20074;-81
2022/10/14 11:00:22;;;;;;;18.13;11.48;;;;;;;;;;4975246;28;20027;-81
2022/10/14 11:03:00;;;;;;;22.23;13.35;;;;;;;;;;4975934;28;20030;-77
2022/10/14 11:05:40;;;;;;;20.73;11.77;;;;;;;;;;4967553;28;20030;-80
2022/10/14 11:14:29;;;;;;;20.02;11.63;;;;;;;;;;4970396;28;20736;-76
2022/10/14 11:17:31;;;;;;;31.08;13.80;;;;;;;;;;4990254;28;20054;-76
2022/10/14 11:20:09;;;;;;;22.05;12.57;;;;;;;;;;4980639;28;20061;-77
2022/10/14 11:22:37;;;;;;;19.70;12.68;;;;;;;;;;4963968;28;20161;-76
2022/10/14 11:25:28;;;;;;;23.17;12.73;;;;;;;;;;4985162;28;20030;-76
2022/10/14 11:28:25;;;;;;;21.63;12.90;;;;;;;;;;4988388;28;20058;-75
2022/10/14 11:31:15;;;;;;;22.67;13.23;;;;;;;;;;4989541;28;20271;-76
2022/10/14 11:34:14;;;;;;;27.60;14.13;;;;;;;;;;4971537;28;20053;-75
2022/10/14 11:37:23;;;;;;;26.08;14.35;;;;;;;;;;4969109;28;20068;-74
2022/10/14 11:39:56;;;;;;;21.90;12.80;;;;;;;;;;4969727;28;20120;-75
2022/10/14 11:42:41;;;;;;;23.15;12.98;;;;;;;;;;4971716;28;20117;-76
2022/10/14 11:45:41;;;;;;;23.95;13.20;;;;;;;;;;4987408;28;20128;-78
2022/10/14 11:48:31;;;;;;;33.70;16.10;;;;;;;;;;4973720;28;20036;-79
2022/10/14 11:51:25;;;;;;;;;;;;;;;;;;4988066;28;20061;-77
2022/10/14 11:54:21;;;;;;;21.63;13.45;;;;;;;;;;4982052;28;20481;-77
2022/10/14 11:57:17;;;;;;;25.40;13.00;;;;;;;;;;4971726;28;20038;-75
2022/10/14 12:00:03;;;;;;;23.83;13.25;;;;;;;;;;4978075;28;20733;-76
2022/10/14 12:02:56;;;;;;;23.75;12.93;;;;;;;;;;4969826;28;20030;-78
2022/10/14 12:05:41;;;;;;;20.77;12.15;;;;;;;;;;4967178;28;20030;-78
2022/10/14 12:08:34;;;;;;;42.42;31.95;;;;;;;;;;4974561;28;20290;-78
2022/10/14 12:11:22;;;;;;;28.02;15.30;;;;;;;;;;4970662;28;20034;-78
2022/10/14 12:13:51;;;;;;;18.60;11.45;;;;;;;;;;4976747;28;20030;-77
2022/10/14 12:16:21;;;;;;;24.50;12.48;;;;;;;;;;4969374;28;20029;-77
2022/10/14 12:18:53;;;;;;;26.90;13.85;;;;;;;;;;4970206;28;20034;-78
2022/10/14 12:21:34;;;;;;;21.15;12.05;;;;;;;;;;4971145;28;20020;-77
2022/10/14 12:24:03;;;;;;;21.73;13.27;;;;;;;;;;4975207;28;20050;-77
2022/10/14 12:27:00;;;;;;;19.17;12.02;;;;;;;;;;4972245;28;20511;-79
2022/10/14 12:29:31;;;;;;;20.77;11.82;;;;;;;;;;4954697;28;20026;-77
2022/10/14 12:32:03;;;;;;;17.73;11.60;;;;;;;;;;4968975;28;20026;-75
2022/10/14 12:34:34;;;;;;;18.13;10.57;;;;;;;;;;4969453;28;20686;-80
2022/10/14 12:37:21;;;;;;;17.75;12.00;;;;;;;;;;4990656;28;20030;-76
2022/10/14 12:39:47;;;;;;;17.33;10.85;;;;;;;;;;4968510;28;20044;-78
2022/10/14 12:42:15;;;;;;;14.60;10.65;;;;;;;;;;4957238;28;20046;-78
2022/10/14 12:44:54;;;;;;;17.92;10.60;;;;;;;;;;4966012;28;20032;-79
2022/10/14 12:47:32;;;;;;;19.58;11.30;;;;;;;;;;4988980;28;20063;-78
2022/10/14 12:50:01;;;;;;;15.40;9.73;;;;;;;;;;4966716;28;20034;-78
2022/10/14 12:52:35;;;;;;;15.52;9.98;;;;;;;;;;4991843;28;20101;-76
2022/10/14 12:55:08;;;;;;;18.35;10.15;;;;;;;;;;4969164;28;20030;-78
2022/10/14 12:57:36;;;;;;;16.98;9.35;;;;;;;;;;4957179;28;20048;-78
2022/10/14 13:00:25;;;;;;;16.45;10.60;;;;;;;;;;4969545;28;20042;-79
2022/10/14 13:02:54;;;;;;;17.63;9.85;;;;;;;;;;4976142;28;20683;-78
2022/10/14 13:05:41;;;;;;;18.70;8.68;;;;;;;;;;4993311;28;20060;-76
2022/10/14 13:08:19;;;;;;;15.40;8.18;;;;;;;;;;4948154;28;20576;-78
2022/10/14 13:10:57;;;;;;;18.48;8.93;;;;;;;;;;4961232;28;20035;-82
2022/10/14 13:13:46;;;;;;;13.02;8.45;;;;;;;;;;4981414;28;20033;-78
2022/10/14 13:16:25;;;;;;;7.43;4.68;;;;;;;;;;4961984;28;20839;-77
2022/10/14 13:19:03;;;;;;;12.18;4.80;;;;;;;;;;4962169;28;20041;-80
2022/10/14 13:21:37;;;;;;;7.22;4.75;;;;;;;;;;4961939;28;20311;-77
2022/10/14 13:24:04;;;;;;;5.55;4.00;;;;;;;;;;4967471;28;20123;-76
2022/10/14 13:26:48;;;;;;;7.75;4.25;;;;;;;;;;4968558;28;20035;-78
2022/10/14 13:29:24;;;;;;;14.85;6.30;;;;;;;;;;4964486;28;20084;-76
2022/10/14 13:32:22;;;;;;;6.07;4.00;;;;;;;;;;4942134;28;20050;-79
2022/10/14 13:34:59;;;;;;;8.55;4.75;;;;;;;;;;4962438;28;20030;-76
2022/10/14 13:37:34;;;;;;;6.03;4.22;;;;;;;;;;4964865;28;20026;-81
2022/10/14 13:40:20;;;;;;;24.42;9.02;;;;;;;;;;4961423;28;20026;-79
2022/10/14 13:42:57;;;;;;;7.97;4.35;;;;;;;;;;4971037;28;20106;-77
2022/10/14 13:45:35;;;;;;;8.43;4.47;;;;;;;;;;4972729;28;20038;-77
2022/10/14 13:48:04;;;;;;;7.57;4.20;;;;;;;;;;4963440;28;20023;-76
2022/10/14 13:50:38;;;;;;;7.65;4.75;;;;;;;;;;4974098;28;20034;-80
2022/10/14 13:53:13;;;;;;;10.65;4.85;;;;;;;;;;4970557;28;20065;-80
2022/10/14 13:55:51;;;;;;;6.25;3.97;;;;;;;;;;4972441;28;20102;-79
2022/10/14 13:58:24;;;;;;;7.07;4.60;;;;;;;;;;4970409;28;20033;-80
2022/10/14 14:00:59;;;;;;;6.55;4.60;;;;;;;;;;4951973;28;20463;-78
2022/10/14 14:03:34;;;;;;;9.27;4.45;;;;;;;;;;4969284;28;20019;-80
2022/10/14 14:06:08;;;;;;;5.35;3.67;;;;;;;;;;4963318;28;20125;-80
2022/10/14 14:08:56;;;;;;;6.88;3.53;;;;;;;;;;4953202;28;20030;-80
2022/10/14 14:11:30;;;;;;;6.43;3.92;;;;;;;;;;4966985;28;20045;-79
2022/10/14 14:14:02;;;;;;;7.22;4.55;;;;;;;;;;4967784;28;20035;-79
2022/10/14 14:16:53;;;;;;;5.15;4.03;;;;;;;;;;4969268;28;20033;-78
2022/10/14 14:19:25;;;;;;;8.43;5.07;;;;;;;;;;4953144;29;20130;-79
2022/10/14 14:21:51;;;;;;;;;;;;;;;;;;4960524;28;20058;-81
2022/10/14 14:24:24;;;;;;;7.32;4.28;;;;;;;;;;4971069;28;19914;-80
2022/10/14 14:26:53;;;;;;;14.93;8.05;;;;;;;;;;4974920;28;20406;-79
2022/10/14 14:29:24;;;;;;;11.48;4.53;;;;;;;;;;4975745;28;20026;-78
2022/10/14 14:31:50;;;;;;;11.63;4.50;;;;;;;;;;4958991;28;20068;-78
2022/10/14 14:34:18;;;;;;;9.93;3.83;;;;;;;;;;4965504;28;20078;-81
2022/10/14 14:36:44;;;;;;;8.15;4.10;;;;;;;;;;4973231;28;20078;-79
2022/10/14 14:39:21;;;;;;;8.50;4.07;;;;;;;;;;4957910;28;20052;-77
2022/10/14 14:41:57;;;;;;;7.53;4.35;;;;;;;;;;4962098;28;20065;-78
2022/10/14 14:44:26;;;;;;;12.77;5.25;;;;;;;;;;4973959;28;20057;-79
2022/10/14 14:46:57;;;;;;;7.80;4.35;;;;;;;;;;4990031;28;20384;-79
2022/10/14 14:49:29;;;;;;;9.18;4.70;;;;;;;;;;4955118;28;20034;-76
2022/10/14 14:51:55;;;;;;;12.50;4.85;;;;;;;;;;4971899;28;20024;-78
2022/10/14 14:54:22;;;;;;;11.45;4.97;;;;;;;;;;4973490;28;20022;-80
2022/10/14 14:56:56;;;;;;;6.05;4.57;;;;;;;;;;4959759;28;20034;-80
2022/10/14 14:59:29;;;;;;;10.60;4.80;;;;;;;;;;4955516;28;20038;-79